sensor_id;sensor_type;location;lat;lon;timestamp;P1;durP1;ratioP1;P2;durP2;ratioP2
61460;SDS011;47325;50.506;4.472;2022-10-26T00:01:07;2.60;;;1.40;;
61460;SDS011;47325;50.506;4.472;2022-10-26T00:06:51;3.20;;;1.40;;
61460;SDS011;47325;50.506;4.472;2022-10-26T00:12:35;4.20;;;1.70;;
61460;SDS011;47325;50.506;4.472;2022-10-26T00:18:18;5.50;;;1.50;;
61460;SDS011;47325;50.506;4.472;2022-10-26T00:24:01;4.20;;;1.60;;
61460;SDS011;47325;50.506;4.472;2022-10-26T00:29:45;3.50;;;1.50;;
61460;SDS011;47325;50.506;4.472;2022-10-26T00:35:28;3.30;;;1.50;;
61460;SDS011;47325;50.506;4.472;2022-10-26T00:41:27;3.00;;;1.50;;
61460;SDS011;47325;50.506;4.472;2022-10-26T00:47:12;4.20;;;1.70;;
61460;SDS011;47325;50.506;4.472;2022-10-26T00:52:57;3.00;;;1.50;;
61460;SDS011;47325;50.506;4.472;2022-10-26T00:58:41;4.00;;;1.70;;
61460;SDS011;47325;50.506;4.472;2022-10-26T01:04:25;4.50;;;1.40;;
61460;SDS011;47325;50.506;4.472;2022-10-26T01:10:09;3.70;;;1.40;;
61460;SDS011;47325;50.506;4.472;2022-10-26T01:15:55;3.90;;;1.50;;
61460;SDS011;47325;50.506;4.472;2022-10-26T01:21:47;3.60;;;1.40;;
61460;SDS011;47325;50.506;4.472;2022-10-26T01:27:35;4.30;;;1.50;;
61460;SDS011;47325;50.506;4.472;2022-10-26T01:33:25;3.70;;;1.40;;
61460;SDS011;47325;50.506;4.472;2022-10-26T01:39:13;3.00;;;1.30;;
61460;SDS011;47325;50.506;4.472;2022-10-26T01:44:58;4.30;;;1.40;;
61460;SDS011;47325;50.506;4.472;2022-10-26T01:50:43;2.70;;;1.20;;
61460;SDS011;47325;50.506;4.472;2022-10-26T01:56:27;3.10;;;1.40;;
61460;SDS011;47325;50.506;4.472;2022-10-26T02:02:18;2.90;;;1.50;;
61460;SDS011;47325;50.506;4.472;2022-10-26T02:08:06;3.30;;;1.20;;
61460;SDS011;47325;50.506;4.472;2022-10-26T02:13:56;3.10;;;1.30;;
61460;SDS011;47325;50.506;4.472;2022-10-26T02:19:45;4.30;;;1.40;;
61460;SDS011;47325;50.506;4.472;2022-10-26T02:25:30;2.60;;;1.30;;
61460;SDS011;47325;50.506;4.472;2022-10-26T02:31:14;3.20;;;1.50;;
61460;SDS011;47325;50.506;4.472;2022-10-26T02:36:59;2.90;;;1.30;;
61460;SDS011;47325;50.506;4.472;2022-10-26T02:42:44;3.60;;;1.30;;
61460;SDS011;47325;50.506;4.472;2022-10-26T02:48:28;2.20;;;1.30;;
61460;SDS011;47325;50.506;4.472;2022-10-26T02:54:13;1.90;;;1.20;;
61460;SDS011;47325;50.506;4.472;2022-10-26T02:59:58;3.20;;;1.30;;
61460;SDS011;47325;50.506;4.472;2022-10-26T03:05:43;2.90;;;1.20;;
61460;SDS011;47325;50.506;4.472;2022-10-26T03:11:26;1.90;;;1.20;;
61460;SDS011;47325;50.506;4.472;2022-10-26T03:17:10;3.00;;;1.20;;
61460;SDS011;47325;50.506;4.472;2022-10-26T03:22:53;3.80;;;1.30;;
61460;SDS011;47325;50.506;4.472;2022-10-26T03:28:36;2.70;;;1.20;;
61460;SDS011;47325;50.506;4.472;2022-10-26T03:34:21;2.00;;;1.20;;
61460;SDS011;47325;50.506;4.472;2022-10-26T03:40:04;3.10;;;1.30;;
61460;SDS011;47325;50.506;4.472;2022-10-26T03:45:48;3.80;;;1.30;;
61460;SDS011;47325;50.506;4.472;2022-10-26T03:51:31;3.40;;;1.30;;
61460;SDS011;47325;50.506;4.472;2022-10-26T03:57:14;2.90;;;1.40;;
61460;SDS011;47325;50.506;4.472;2022-10-26T04:02:58;3.70;;;1.40;;
61460;SDS011;47325;50.506;4.472;2022-10-26T04:08:41;3.20;;;1.20;;
61460;SDS011;47325;50.506;4.472;2022-10-26T04:14:25;2.50;;;1.30;;
61460;SDS011;47325;50.506;4.472;2022-10-26T04:20:09;2.50;;;1.20;;
61460;SDS011;47325;50.506;4.472;2022-10-26T04:25:52;5.70;;;1.50;;
61460;SDS011;47325;50.506;4.472;2022-10-26T04:31:35;2.10;;;1.40;;
61460;SDS011;47325;50.506;4.472;2022-10-26T04:37:19;4.50;;;1.40;;
61460;SDS011;47325;50.506;4.472;2022-10-26T04:43:03;3.60;;;1.30;;
61460;SDS011;47325;50.506;4.472;2022-10-26T04:48:46;2.70;;;1.40;;
61460;SDS011;47325;50.506;4.472;2022-10-26T04:54:30;2.80;;;1.20;;
61460;SDS011;47325;50.506;4.472;2022-10-26T05:00:14;3.10;;;1.50;;
61460;SDS011;47325;50.506;4.472;2022-10-26T05:05:57;3.20;;;1.40;;
61460;SDS011;47325;50.506;4.472;2022-10-26T05:11:40;3.80;;;1.30;;
61460;SDS011;47325;50.506;4.472;2022-10-26T05:17:24;4.10;;;1.40;;
61460;SDS011;47325;50.506;4.472;2022-10-26T05:23:09;8.10;;;1.60;;
61460;SDS011;47325;50.506;4.472;2022-10-26T05:28:54;4.60;;;2.00;;
61460;SDS011;47325;50.506;4.472;2022-10-26T05:34:37;2.70;;;1.30;;
61460;SDS011;47325;50.506;4.472;2022-10-26T05:40:24;3.00;;;1.40;;
61460;SDS011;47325;50.506;4.472;2022-10-26T05:46:07;2.40;;;1.30;;
61460;SDS011;47325;50.506;4.472;2022-10-26T05:51:50;3.00;;;1.40;;
61460;SDS011;47325;50.506;4.472;2022-10-26T05:57:35;3.60;;;1.40;;
61460;SDS011;47325;50.506;4.472;2022-10-26T06:03:22;3.50;;;1.40;;
61460;SDS011;47325;50.506;4.472;2022-10-26T06:09:08;3.70;;;1.70;;
61460;SDS011;47325;50.506;4.472;2022-10-26T06:14:53;2.80;;;1.50;;
61460;SDS011;47325;50.506;4.472;2022-10-26T06:20:41;3.30;;;1.60;;
61460;SDS011;47325;50.506;4.472;2022-10-26T06:26:33;2.20;;;1.50;;
61460;SDS011;47325;50.506;4.472;2022-10-26T06:32:18;5.70;;;2.20;;
61460;SDS011;47325;50.506;4.472;2022-10-26T06:38:02;4.40;;;2.00;;
61460;SDS011;47325;50.506;4.472;2022-10-26T06:43:47;4.50;;;2.10;;
61460;SDS011;47325;50.506;4.472;2022-10-26T06:49:31;4.00;;;1.80;;
61460;SDS011;47325;50.506;4.472;2022-10-26T06:55:18;5.60;;;2.10;;
61460;SDS011;47325;50.506;4.472;2022-10-26T07:01:02;3.60;;;1.80;;
61460;SDS011;47325;50.506;4.472;2022-10-26T07:06:46;3.70;;;2.10;;
61460;SDS011;47325;50.506;4.472;2022-10-26T07:12:29;3.90;;;2.10;;
61460;SDS011;47325;50.506;4.472;2022-10-26T07:18:16;2.50;;;1.80;;
61460;SDS011;47325;50.506;4.472;2022-10-26T07:23:59;6.00;;;2.00;;
61460;SDS011;47325;50.506;4.472;2022-10-26T07:29:42;3.60;;;2.00;;
61460;SDS011;47325;50.506;4.472;2022-10-26T07:35:26;4.70;;;2.00;;
61460;SDS011;47325;50.506;4.472;2022-10-26T07:41:09;5.80;;;2.00;;
61460;SDS011;47325;50.506;4.472;2022-10-26T07:46:52;4.60;;;2.00;;
61460;SDS011;47325;50.506;4.472;2022-10-26T07:52:36;4.10;;;2.10;;
61460;SDS011;47325;50.506;4.472;2022-10-26T07:58:19;4.10;;;1.90;;
61460;SDS011;47325;50.506;4.472;2022-10-26T08:04:03;5.10;;;2.10;;
61460;SDS011;47325;50.506;4.472;2022-10-26T08:09:47;4.80;;;1.80;;
61460;SDS011;47325;50.506;4.472;2022-10-26T08:15:32;4.10;;;2.00;;
61460;SDS011;47325;50.506;4.472;2022-10-26T08:21:16;3.80;;;1.70;;
61460;SDS011;47325;50.506;4.472;2022-10-26T08:27:19;4.20;;;1.80;;
61460;SDS011;47325;50.506;4.472;2022-10-26T08:33:03;3.70;;;1.70;;
61460;SDS011;47325;50.506;4.472;2022-10-26T08:38:47;4.80;;;1.80;;
61460;SDS011;47325;50.506;4.472;2022-10-26T08:44:32;4.00;;;2.10;;
61460;SDS011;47325;50.506;4.472;2022-10-26T08:50:21;4.10;;;1.60;;
61460;SDS011;47325;50.506;4.472;2022-10-26T08:56:08;3.90;;;1.80;;
61460;SDS011;47325;50.506;4.472;2022-10-26T09:01:53;4.00;;;1.50;;
61460;SDS011;47325;50.506;4.472;2022-10-26T09:07:41;4.10;;;1.60;;
61460;SDS011;47325;50.506;4.472;2022-10-26T09:13:31;3.90;;;1.60;;
61460;SDS011;47325;50.506;4.472;2022-10-26T09:19:22;3.60;;;1.40;;
61460;SDS011;47325;50.506;4.472;2022-10-26T09:25:11;3.60;;;1.50;;
61460;SDS011;47325;50.506;4.472;2022-10-26T09:30:58;5.10;;;1.60;;
61460;SDS011;47325;50.506;4.472;2022-10-26T09:36:42;3.20;;;1.50;;
61460;SDS011;47325;50.506;4.472;2022-10-26T09:42:27;3.30;;;1.50;;
61460;SDS011;47325;50.506;4.472;2022-10-26T09:48:14;3.40;;;1.60;;
61460;SDS011;47325;50.506;4.472;2022-10-26T09:53:58;4.60;;;1.40;;
61460;SDS011;47325;50.506;4.472;2022-10-26T09:59:42;4.20;;;1.50;;
61460;SDS011;47325;50.506;4.472;2022-10-26T10:05:27;2.80;;;1.20;;
61460;SDS011;47325;50.506;4.472;2022-10-26T10:11:39;2.80;;;1.40;;
61460;SDS011;47325;50.506;4.472;2022-10-26T10:17:23;4.80;;;1.40;;
61460;SDS011;47325;50.506;4.472;2022-10-26T10:23:09;2.70;;;1.10;;
61460;SDS011;47325;50.506;4.472;2022-10-26T10:28:59;2.60;;;1.20;;
61460;SDS011;47325;50.506;4.472;2022-10-26T10:34:43;2.40;;;1.10;;
61460;SDS011;47325;50.506;4.472;2022-10-26T10:40:27;2.50;;;1.20;;
61460;SDS011;47325;50.506;4.472;2022-10-26T10:46:15;2.70;;;1.30;;
61460;SDS011;47325;50.506;4.472;2022-10-26T10:52:00;2.50;;;1.00;;
61460;SDS011;47325;50.506;4.472;2022-10-26T10:57:46;2.20;;;1.10;;
61460;SDS011;47325;50.506;4.472;2022-10-26T11:03:40;3.80;;;1.30;;
61460;SDS011;47325;50.506;4.472;2022-10-26T11:09:27;3.30;;;1.20;;
61460;SDS011;47325;50.506;4.472;2022-10-26T11:15:13;3.20;;;1.20;;
61460;SDS011;47325;50.506;4.472;2022-10-26T11:20:59;1.70;;;1.00;;
61460;SDS011;47325;50.506;4.472;2022-10-26T11:26:46;1.90;;;0.90;;
61460;SDS011;47325;50.506;4.472;2022-10-26T11:32:33;1.80;;;1.10;;
61460;SDS011;47325;50.506;4.472;2022-10-26T11:38:20;3.50;;;1.20;;
61460;SDS011;47325;50.506;4.472;2022-10-26T11:44:28;3.90;;;1.20;;
61460;SDS011;47325;50.506;4.472;2022-10-26T11:50:14;4.50;;;1.30;;
61460;SDS011;47325;50.506;4.472;2022-10-26T11:56:00;1.80;;;1.10;;
61460;SDS011;47325;50.506;4.472;2022-10-26T12:01:45;3.00;;;1.20;;
61460;SDS011;47325;50.506;4.472;2022-10-26T12:07:30;3.50;;;1.10;;
61460;SDS011;47325;50.506;4.472;2022-10-26T12:13:16;3.60;;;1.10;;
61460;SDS011;47325;50.506;4.472;2022-10-26T12:19:03;2.60;;;0.90;;
61460;SDS011;47325;50.506;4.472;2022-10-26T12:25:04;2.30;;;1.10;;
61460;SDS011;47325;50.506;4.472;2022-10-26T12:30:39;1.50;;;0.90;;
61460;SDS011;47325;50.506;4.472;2022-10-26T12:42:31;2.40;;;1.10;;
61460;SDS011;47325;50.506;4.472;2022-10-26T12:48:37;2.90;;;1.00;;
61460;SDS011;47325;50.506;4.472;2022-10-26T12:54:23;1.90;;;1.00;;
61460;SDS011;47325;50.506;4.472;2022-10-26T13:00:10;3.20;;;0.90;;
61460;SDS011;47325;50.506;4.472;2022-10-26T13:11:50;4.00;;;1.00;;
61460;SDS011;47325;50.506;4.472;2022-10-26T13:17:34;2.80;;;0.90;;
61460;SDS011;47325;50.506;4.472;2022-10-26T13:23:18;2.90;;;1.00;;
61460;SDS011;47325;50.506;4.472;2022-10-26T13:29:07;3.40;;;1.00;;
61460;SDS011;47325;50.506;4.472;2022-10-26T13:34:55;3.00;;;1.00;;
61460;SDS011;47325;50.506;4.472;2022-10-26T13:40:40;2.90;;;1.10;;
61460;SDS011;47325;50.506;4.472;2022-10-26T13:46:29;2.10;;;0.90;;
61460;SDS011;47325;50.506;4.472;2022-10-26T13:52:18;3.90;;;1.20;;
61460;SDS011;47325;50.506;4.472;2022-10-26T13:58:16;4.40;;;1.10;;
61460;SDS011;47325;50.506;4.472;2022-10-26T14:04:12;2.00;;;1.00;;
61460;SDS011;47325;50.506;4.472;2022-10-26T14:09:57;2.50;;;0.90;;
61460;SDS011;47325;50.506;4.472;2022-10-26T14:15:41;4.60;;;1.10;;
61460;SDS011;47325;50.506;4.472;2022-10-26T14:21:27;2.40;;;0.90;;
61460;SDS011;47325;50.506;4.472;2022-10-26T14:27:17;4.30;;;1.00;;
61460;SDS011;47325;50.506;4.472;2022-10-26T14:33:01;2.40;;;0.80;;
61460;SDS011;47325;50.506;4.472;2022-10-26T14:38:51;3.00;;;0.90;;
61460;SDS011;47325;50.506;4.472;2022-10-26T14:44:36;2.60;;;0.80;;
61460;SDS011;47325;50.506;4.472;2022-10-26T14:50:21;2.70;;;1.00;;
61460;SDS011;47325;50.506;4.472;2022-10-26T14:56:05;3.90;;;0.90;;
61460;SDS011;47325;50.506;4.472;2022-10-26T15:01:53;2.40;;;1.10;;
61460;SDS011;47325;50.506;4.472;2022-10-26T15:07:38;3.10;;;1.00;;
61460;SDS011;47325;50.506;4.472;2022-10-26T15:13:23;3.90;;;1.20;;
61460;SDS011;47325;50.506;4.472;2022-10-26T15:19:10;3.30;;;1.00;;
61460;SDS011;47325;50.506;4.472;2022-10-26T15:24:56;2.80;;;1.20;;
61460;SDS011;47325;50.506;4.472;2022-10-26T15:30:40;5.90;;;1.50;;
61460;SDS011;47325;50.506;4.472;2022-10-26T15:36:35;3.50;;;1.20;;
61460;SDS011;47325;50.506;4.472;2022-10-26T15:42:18;3.00;;;1.10;;
61460;SDS011;47325;50.506;4.472;2022-10-26T15:48:11;3.30;;;1.30;;
61460;SDS011;47325;50.506;4.472;2022-10-26T15:53:50;2.20;;;1.20;;
61460;SDS011;47325;50.506;4.472;2022-10-26T15:59:34;4.60;;;1.20;;
61460;SDS011;47325;50.506;4.472;2022-10-26T16:05:17;2.10;;;1.30;;
61460;SDS011;47325;50.506;4.472;2022-10-26T16:11:00;2.80;;;1.10;;
61460;SDS011;47325;50.506;4.472;2022-10-26T16:16:44;3.00;;;1.00;;
61460;SDS011;47325;50.506;4.472;2022-10-26T16:22:27;4.10;;;1.30;;
61460;SDS011;47325;50.506;4.472;2022-10-26T16:28:17;3.00;;;1.10;;
61460;SDS011;47325;50.506;4.472;2022-10-26T16:34:00;2.70;;;1.00;;
61460;SDS011;47325;50.506;4.472;2022-10-26T16:39:46;2.80;;;1.20;;
61460;SDS011;47325;50.506;4.472;2022-10-26T16:45:29;2.00;;;1.10;;
61460;SDS011;47325;50.506;4.472;2022-10-26T16:51:13;3.30;;;1.30;;
61460;SDS011;47325;50.506;4.472;2022-10-26T16:56:56;3.10;;;1.60;;
61460;SDS011;47325;50.506;4.472;2022-10-26T17:02:39;3.90;;;1.50;;
61460;SDS011;47325;50.506;4.472;2022-10-26T17:08:23;3.50;;;1.30;;
61460;SDS011;47325;50.506;4.472;2022-10-26T17:14:07;4.50;;;1.60;;
61460;SDS011;47325;50.506;4.472;2022-10-26T17:19:50;3.00;;;1.50;;
61460;SDS011;47325;50.506;4.472;2022-10-26T17:25:36;4.80;;;1.50;;
61460;SDS011;47325;50.506;4.472;2022-10-26T17:31:19;4.00;;;1.60;;
61460;SDS011;47325;50.506;4.472;2022-10-26T17:37:03;3.40;;;1.40;;
61460;SDS011;47325;50.506;4.472;2022-10-26T17:42:46;4.40;;;1.70;;
61460;SDS011;47325;50.506;4.472;2022-10-26T17:48:32;4.30;;;1.70;;
61460;SDS011;47325;50.506;4.472;2022-10-26T17:54:15;3.60;;;1.60;;
61460;SDS011;47325;50.506;4.472;2022-10-26T18:00:00;3.20;;;1.60;;
61460;SDS011;47325;50.506;4.472;2022-10-26T18:05:43;3.30;;;1.70;;
61460;SDS011;47325;50.506;4.472;2022-10-26T18:11:31;3.90;;;1.70;;
61460;SDS011;47325;50.506;4.472;2022-10-26T18:17:14;4.00;;;1.60;;
61460;SDS011;47325;50.506;4.472;2022-10-26T18:22:58;3.40;;;1.80;;
61460;SDS011;47325;50.506;4.472;2022-10-26T18:28:41;4.20;;;1.60;;
61460;SDS011;47325;50.506;4.472;2022-10-26T18:34:26;3.40;;;1.70;;
61460;SDS011;47325;50.506;4.472;2022-10-26T18:40:10;3.40;;;1.60;;
61460;SDS011;47325;50.506;4.472;2022-10-26T18:45:56;4.10;;;1.50;;
61460;SDS011;47325;50.506;4.472;2022-10-26T18:51:42;3.80;;;1.70;;
61460;SDS011;47325;50.506;4.472;2022-10-26T18:57:25;2.90;;;1.60;;
61460;SDS011;47325;50.506;4.472;2022-10-26T19:03:09;3.10;;;1.70;;
61460;SDS011;47325;50.506;4.472;2022-10-26T19:08:52;3.90;;;1.70;;
61460;SDS011;47325;50.506;4.472;2022-10-26T19:14:35;5.00;;;1.70;;
61460;SDS011;47325;50.506;4.472;2022-10-26T19:20:19;4.00;;;1.80;;
61460;SDS011;47325;50.506;4.472;2022-10-26T19:26:02;4.20;;;2.00;;
61460;SDS011;47325;50.506;4.472;2022-10-26T19:31:46;4.10;;;1.90;;
61460;SDS011;47325;50.506;4.472;2022-10-26T19:37:30;3.60;;;1.80;;
61460;SDS011;47325;50.506;4.472;2022-10-26T19:43:13;3.20;;;1.80;;
61460;SDS011;47325;50.506;4.472;2022-10-26T19:48:57;3.20;;;1.90;;
61460;SDS011;47325;50.506;4.472;2022-10-26T19:54:41;5.60;;;2.00;;
61460;SDS011;47325;50.506;4.472;2022-10-26T20:00:24;3.40;;;1.80;;
61460;SDS011;47325;50.506;4.472;2022-10-26T20:06:08;3.00;;;1.90;;
61460;SDS011;47325;50.506;4.472;2022-10-26T20:11:52;4.00;;;2.10;;
61460;SDS011;47325;50.506;4.472;2022-10-26T20:17:36;3.70;;;1.80;;
61460;SDS011;47325;50.506;4.472;2022-10-26T20:23:21;4.40;;;2.10;;
61460;SDS011;47325;50.506;4.472;2022-10-26T20:29:04;3.50;;;1.90;;
61460;SDS011;47325;50.506;4.472;2022-10-26T20:34:52;3.90;;;1.90;;
61460;SDS011;47325;50.506;4.472;2022-10-26T20:40:36;2.90;;;1.80;;
61460;SDS011;47325;50.506;4.472;2022-10-26T20:46:27;3.80;;;1.80;;
61460;SDS011;47325;50.506;4.472;2022-10-26T20:52:28;2.90;;;1.80;;
61460;SDS011;47325;50.506;4.472;2022-10-26T20:58:22;3.90;;;1.80;;
61460;SDS011;47325;50.506;4.472;2022-10-26T21:04:19;4.00;;;2.00;;
61460;SDS011;47325;50.506;4.472;2022-10-26T21:10:11;3.40;;;1.90;;
61460;SDS011;47325;50.506;4.472;2022-10-26T21:15:57;2.90;;;1.70;;
61460;SDS011;47325;50.506;4.472;2022-10-26T21:21:52;3.80;;;1.90;;
61460;SDS011;47325;50.506;4.472;2022-10-26T21:27:44;3.60;;;1.80;;
61460;SDS011;47325;50.506;4.472;2022-10-26T21:33:38;4.40;;;1.60;;
61460;SDS011;47325;50.506;4.472;2022-10-26T21:39:22;3.50;;;1.70;;
61460;SDS011;47325;50.506;4.472;2022-10-26T21:45:15;3.70;;;1.70;;
61460;SDS011;47325;50.506;4.472;2022-10-26T21:50:59;3.40;;;2.00;;
61460;SDS011;47325;50.506;4.472;2022-10-26T21:56:43;3.90;;;1.80;;
61460;SDS011;47325;50.506;4.472;2022-10-26T22:02:27;3.90;;;1.80;;
61460;SDS011;47325;50.506;4.472;2022-10-26T22:08:22;4.70;;;1.70;;
61460;SDS011;47325;50.506;4.472;2022-10-26T22:14:06;3.50;;;1.60;;
61460;SDS011;47325;50.506;4.472;2022-10-26T22:19:52;3.40;;;1.50;;
61460;SDS011;47325;50.506;4.472;2022-10-26T22:25:37;3.50;;;1.80;;
61460;SDS011;47325;50.506;4.472;2022-10-26T22:31:27;2.90;;;1.50;;
61460;SDS011;47325;50.506;4.472;2022-10-26T22:37:19;2.70;;;1.60;;
61460;SDS011;47325;50.506;4.472;2022-10-26T22:43:03;3.80;;;1.80;;
61460;SDS011;47325;50.506;4.472;2022-10-26T22:48:51;3.10;;;1.80;;
61460;SDS011;47325;50.506;4.472;2022-10-26T22:54:36;3.20;;;1.70;;
61460;SDS011;47325;50.506;4.472;2022-10-26T23:00:26;3.30;;;1.70;;
61460;SDS011;47325;50.506;4.472;2022-10-26T23:06:11;3.90;;;1.60;;
61460;SDS011;47325;50.506;4.472;2022-10-26T23:12:03;3.00;;;1.60;;
61460;SDS011;47325;50.506;4.472;2022-10-26T23:17:47;4.10;;;1.80;;
61460;SDS011;47325;50.506;4.472;2022-10-26T23:23:34;4.50;;;1.60;;
61460;SDS011;47325;50.506;4.472;2022-10-26T23:29:18;4.00;;;1.90;;
61460;SDS011;47325;50.506;4.472;2022-10-26T23:35:09;3.30;;;1.70;;
61460;SDS011;47325;50.506;4.472;2022-10-26T23:41:00;3.10;;;1.50;;
61460;SDS011;47325;50.506;4.472;2022-10-26T23:46:55;3.00;;;1.50;;
61460;SDS011;47325;50.506;4.472;2022-10-26T23:52:44;3.00;;;1.70;;
61460;SDS011;47325;50.506;4.472;2022-10-26T23:58:38;3.10;;;1.60;;
